createdAt,value
2022-09-06T00:01:23.702Z,17.60
2022-09-06T00:04:39.185Z,17.50
2022-09-06T00:07:48.117Z,17.50
2022-09-06T00:10:42.505Z,17.50
2022-09-06T00:13:35.118Z,17.50
2022-09-06T00:16:39.560Z,17.50
2022-09-06T00:19:56.874Z,17.50
2022-09-06T00:23:08.608Z,17.40
2022-09-06T00:26:14.702Z,17.40
2022-09-06T00:29:26.345Z,17.40
2022-09-06T00:33:04.585Z,17.40
2022-09-06T00:36:30.272Z,17.40
2022-09-06T00:39:39.204Z,17.40
2022-09-06T00:42:42.970Z,17.30
2022-09-06T00:45:49.512Z,17.30
2022-09-06T00:48:43.294Z,17.30
2022-09-06T00:51:47.529Z,17.30
2022-09-06T00:55:05.190Z,17.30
2022-09-06T00:58:18.855Z,17.20
2022-09-06T01:01:38.748Z,17.20
2022-09-06T01:04:48.071Z,17.20
2022-09-06T01:07:58.961Z,17.20
2022-09-06T01:11:44.105Z,17.20
2022-09-06T01:15:18.052Z,17.10
2022-09-06T01:19:14.679Z,17.10
2022-09-06T01:22:39.752Z,17.20
2022-09-06T01:26:17.296Z,17.10
2022-09-06T01:29:26.359Z,17.10
2022-09-06T01:32:38.873Z,17.10
2022-09-06T01:35:55.013Z,17.10
2022-09-06T01:39:15.854Z,17.10
2022-09-06T01:42:41.818Z,17.10
2022-09-06T01:46:02.244Z,17.10
2022-09-06T01:49:34.673Z,17.10
2022-09-06T01:52:47.309Z,17.00
2022-09-06T01:56:22.704Z,17.00
2022-09-06T01:59:47.617Z,17.00
2022-09-06T02:03:06.478Z,17.00
2022-09-06T02:06:10.544Z,17.00
2022-09-06T02:09:31.283Z,16.90
2022-09-06T02:16:00.962Z,16.90
2022-09-06T02:19:35.356Z,16.90
2022-09-06T02:23:03.140Z,16.90
2022-09-06T02:26:13.281Z,16.90
2022-09-06T02:29:23.772Z,16.90
2022-09-06T02:32:49.634Z,16.90
2022-09-06T02:36:19.053Z,16.80
2022-09-06T02:39:32.935Z,16.90
2022-09-06T02:42:44.806Z,16.80
2022-09-06T02:45:41.726Z,16.90
2022-09-06T02:49:03.961Z,16.90
2022-09-06T02:55:14.010Z,16.90
2022-09-06T02:58:25.680Z,16.80
2022-09-06T03:01:26.210Z,16.80
2022-09-06T03:04:38.085Z,16.80
2022-09-06T03:07:43.636Z,16.80
2022-09-06T03:10:47.940Z,16.80
2022-09-06T03:13:44.981Z,16.80
2022-09-06T03:16:55.493Z,16.80
2022-09-06T03:19:50.688Z,16.70
2022-09-06T03:23:07.778Z,16.70
2022-09-06T03:26:16.767Z,16.70
2022-09-06T03:29:34.771Z,16.70
2022-09-06T03:32:40.197Z,16.70
2022-09-06T03:36:00.905Z,16.70
2022-09-06T03:39:24.917Z,16.70
2022-09-06T03:43:09.765Z,16.70
2022-09-06T03:46:10.404Z,16.70
2022-09-06T03:49:28.047Z,16.60
2022-09-06T03:52:25.583Z,16.60
2022-09-06T03:55:45.077Z,16.60
2022-09-06T03:59:35.218Z,16.60
2022-09-06T04:02:13.347Z,16.50
2022-09-06T04:05:52.595Z,16.50
2022-09-06T04:08:56.184Z,16.50
2022-09-06T04:12:12.999Z,16.50
2022-09-06T04:15:35.017Z,16.50
2022-09-06T04:18:43.204Z,16.40
2022-09-06T04:21:43.923Z,16.40
2022-09-06T04:24:40.011Z,16.40
2022-09-06T04:28:04.550Z,16.40
2022-09-06T04:31:31.285Z,16.40
2022-09-06T04:34:38.497Z,16.40
2022-09-06T04:38:03.082Z,16.40
2022-09-06T04:48:04.336Z,16.40
2022-09-06T04:50:56.882Z,16.40
2022-09-06T04:54:06.470Z,16.30
2022-09-06T04:57:12.527Z,16.30
2022-09-06T05:00:26.796Z,16.30
2022-09-06T05:03:26.713Z,16.30
2022-09-06T05:06:41.934Z,16.30
2022-09-06T05:09:52.653Z,16.30
2022-09-06T05:12:56.340Z,16.30
2022-09-06T05:15:55.155Z,16.30
2022-09-06T05:18:52.542Z,16.30
2022-09-06T05:21:45.977Z,16.30
2022-09-06T05:24:50.130Z,16.30
2022-09-06T05:27:43.170Z,16.30
2022-09-06T05:30:34.537Z,16.30
2022-09-06T05:33:27.124Z,16.30
2022-09-06T05:36:21.157Z,16.30
2022-09-06T05:39:12.878Z,16.30
2022-09-06T05:42:08.017Z,16.30
2022-09-06T05:44:59.678Z,16.30
2022-09-06T05:47:52.596Z,16.30
2022-09-06T05:51:01.190Z,16.30
2022-09-06T05:53:49.354Z,16.30
2022-09-06T05:56:37.529Z,16.30
2022-09-06T05:59:27.952Z,16.30
2022-09-06T06:02:16.150Z,16.30
2022-09-06T06:05:04.601Z,16.30
2022-09-06T06:07:55.691Z,16.30
2022-09-06T06:10:43.876Z,16.30
2022-09-06T06:13:34.903Z,16.30
2022-09-06T06:16:24.937Z,16.30
2022-09-06T06:19:13.458Z,16.30
2022-09-06T06:22:01.744Z,16.30
2022-09-06T06:24:51.310Z,16.40
2022-09-06T06:27:40.706Z,16.40
2022-09-06T06:30:28.924Z,16.30
2022-09-06T06:33:17.133Z,16.30
2022-09-06T06:36:07.962Z,16.40
2022-09-06T06:38:56.524Z,16.40
2022-09-06T06:41:46.225Z,16.40
2022-09-06T06:44:37.173Z,16.40
2022-09-06T06:47:25.443Z,16.50
2022-09-06T06:50:13.633Z,16.50
2022-09-06T06:53:01.852Z,16.40
2022-09-06T06:55:50.229Z,16.50
2022-09-06T06:58:39.759Z,16.50
2022-09-06T07:01:29.654Z,16.50
2022-09-06T07:04:17.939Z,16.50
2022-09-06T07:13:23.005Z,16.60
2022-09-06T07:16:15.152Z,16.60
2022-09-06T07:19:03.964Z,16.60
2022-09-06T07:21:52.182Z,16.60
2022-09-06T07:24:40.374Z,16.60
2022-09-06T07:30:38.470Z,16.70
2022-09-06T07:33:29.098Z,16.60
2022-09-06T07:36:17.613Z,16.60
2022-09-06T07:39:05.866Z,16.70
2022-09-06T07:41:54.132Z,16.70
2022-09-06T07:44:42.301Z,16.70
2022-09-06T07:50:48.449Z,16.80
2022-09-06T07:53:39.053Z,16.80
2022-09-06T07:56:27.240Z,16.80
2022-09-06T07:59:15.784Z,16.80
2022-09-06T08:02:03.972Z,16.80
2022-09-06T08:04:52.152Z,16.90
2022-09-06T08:07:41.651Z,16.90
2022-09-06T08:10:30.040Z,16.90
2022-09-06T08:13:21.225Z,17.00
2022-09-06T08:16:11.797Z,17.00
2022-09-06T08:19:01.782Z,17.00
2022-09-06T08:21:49.979Z,17.00
2022-09-06T08:24:39.718Z,17.10
2022-09-06T08:27:28.701Z,17.10
2022-09-06T08:30:16.958Z,17.20
2022-09-06T08:33:05.218Z,17.20
2022-09-06T08:35:57.462Z,17.30
2022-09-06T08:38:46.641Z,17.30
2022-09-06T08:41:47.039Z,17.30
2022-09-06T08:44:57.198Z,17.40
2022-09-06T08:47:46.242Z,17.40
2022-09-06T08:50:36.573Z,17.50
2022-09-06T08:53:25.428Z,17.50
2022-09-06T08:56:18.542Z,17.60
2022-09-06T08:59:12.671Z,17.60
2022-09-06T09:02:17.802Z,17.60
2022-09-06T09:05:08.850Z,17.70
2022-09-06T09:08:07.393Z,17.70
2022-09-06T09:11:00.741Z,17.70
2022-09-06T09:13:55.921Z,17.80
2022-09-06T09:16:45.836Z,17.80
2022-09-06T09:19:37.340Z,17.80
2022-09-06T09:22:29.109Z,17.90
2022-09-06T09:25:23.301Z,17.90
2022-09-06T09:28:17.519Z,17.90
2022-09-06T09:31:07.288Z,17.90
2022-09-06T09:33:57.099Z,17.90
2022-09-06T09:39:56.398Z,18.00
2022-09-06T09:42:45.686Z,18.00
2022-09-06T09:45:33.856Z,18.00
2022-09-06T09:48:28.173Z,18.10
2022-09-06T09:51:27.116Z,18.10
2022-09-06T09:54:31.731Z,18.20
2022-09-06T09:57:24.237Z,18.20
2022-09-06T10:00:32.361Z,18.20
2022-09-06T10:03:30.517Z,18.20
2022-09-06T10:09:45.655Z,18.20
2022-09-06T10:12:36.656Z,18.30
2022-09-06T10:15:35.175Z,18.30
2022-09-06T10:18:31.703Z,18.30
2022-09-06T10:21:26.684Z,18.30
2022-09-06T10:27:24.435Z,18.40
2022-09-06T10:30:14.492Z,18.30
2022-09-06T10:33:06.698Z,18.30
2022-09-06T10:35:59.690Z,18.30
2022-09-06T10:38:54.356Z,18.40
2022-09-06T10:42:00.845Z,18.40
2022-09-06T10:45:02.560Z,18.40
2022-09-06T10:47:57.484Z,18.40
2022-09-06T10:50:51.710Z,18.40
2022-09-06T10:53:48.118Z,18.50
2022-09-06T10:56:44.166Z,18.40
2022-09-06T10:59:36.608Z,18.50
2022-09-06T11:02:39.385Z,18.50
2022-09-06T11:05:40.458Z,18.50
2022-09-06T11:11:45.314Z,18.60
2022-09-06T11:14:35.159Z,18.60
2022-09-06T11:17:31.671Z,18.70
2022-09-06T11:20:29.898Z,18.70
2022-09-06T11:23:33.173Z,18.70
2022-09-06T11:26:34.492Z,18.70
2022-09-06T11:29:27.773Z,18.70
2022-09-06T11:32:37.046Z,18.70
2022-09-06T11:35:28.036Z,18.80
2022-09-06T11:38:25.814Z,18.80
2022-09-06T11:41:18.245Z,18.80
2022-09-06T11:44:08.757Z,18.90
2022-09-06T11:47:04.819Z,18.90
2022-09-06T11:49:52.967Z,19.00
2022-09-06T11:53:00.790Z,19.00
2022-09-06T11:55:50.784Z,19.00
2022-09-06T11:58:52.210Z,19.10
2022-09-06T12:01:41.948Z,19.10
2022-09-06T12:05:12.994Z,19.10
2022-09-06T12:08:26.621Z,19.10
2022-09-06T12:11:30.640Z,19.10
2022-09-06T12:14:34.099Z,19.10
2022-09-06T12:17:22.714Z,19.10
2022-09-06T12:20:11.240Z,19.10
2022-09-06T12:23:00.868Z,19.20
2022-09-06T12:26:01.685Z,19.20
2022-09-06T12:28:52.534Z,19.20
2022-09-06T12:31:43.338Z,19.20
2022-09-06T12:34:37.143Z,19.10
2022-09-06T12:37:34.147Z,19.20
2022-09-06T12:40:27.036Z,19.20
2022-09-06T12:43:21.680Z,19.20
2022-09-06T12:46:09.963Z,19.20
2022-09-06T12:49:02.972Z,19.30
2022-09-06T12:51:51.262Z,19.30
2022-09-06T12:54:45.393Z,19.30
2022-09-06T12:57:33.542Z,19.30
2022-09-06T13:00:24.882Z,19.30
2022-09-06T13:03:25.423Z,19.40
2022-09-06T13:06:26.065Z,19.40
2022-09-06T13:09:20.286Z,19.40
2022-09-06T13:12:11.180Z,19.40
2022-09-06T13:15:06.157Z,19.40
2022-09-06T13:18:19.242Z,19.40
2022-09-06T13:21:12.027Z,19.40
2022-09-06T13:24:03.926Z,19.40
2022-09-06T13:26:52.848Z,19.50
2022-09-06T13:29:56.416Z,19.50
2022-09-06T13:32:48.113Z,19.50
2022-09-06T13:35:39.436Z,19.50
2022-09-06T13:38:35.096Z,19.50
2022-09-06T13:41:42.210Z,19.60
2022-09-06T13:44:31.476Z,19.60
2022-09-06T13:47:22.415Z,19.60
2022-09-06T13:50:10.778Z,19.60
2022-09-06T13:52:59.023Z,19.60
2022-09-06T13:55:51.136Z,19.60
2022-09-06T13:58:39.594Z,19.60
2022-09-06T14:01:27.834Z,19.60
2022-09-06T14:04:19.610Z,19.70
2022-09-06T14:07:12.358Z,19.60
2022-09-06T14:10:01.018Z,19.60
2022-09-06T14:12:50.575Z,19.60
2022-09-06T14:15:39.649Z,19.60
2022-09-06T14:18:28.158Z,19.60
2022-09-06T14:21:16.635Z,19.60
2022-09-06T14:24:05.170Z,19.60
2022-09-06T14:26:53.411Z,19.60
2022-09-06T14:29:42.911Z,19.60
2022-09-06T14:32:31.160Z,19.60
2022-09-06T14:35:21.592Z,19.60
2022-09-06T14:38:09.768Z,19.60
2022-09-06T14:41:06.857Z,19.60
2022-09-06T14:43:57.057Z,19.70
2022-09-06T14:46:49.019Z,19.70
2022-09-06T14:49:37.513Z,19.70
2022-09-06T14:52:25.873Z,19.70
2022-09-06T14:55:14.152Z,19.70
2022-09-06T14:58:04.287Z,19.70
2022-09-06T15:00:52.552Z,19.80
2022-09-06T15:03:43.574Z,19.80
2022-09-06T15:06:34.687Z,19.80
2022-09-06T15:09:27.513Z,19.80
2022-09-06T15:12:15.767Z,19.80
2022-09-06T15:15:04.428Z,19.80
2022-09-06T15:17:52.669Z,19.80
2022-09-06T15:20:44.806Z,19.90
2022-09-06T15:23:33.028Z,19.90
2022-09-06T15:26:21.786Z,19.90
2022-09-06T15:29:10.817Z,19.90
2022-09-06T15:32:02.062Z,19.90
2022-09-06T15:34:50.308Z,19.90
2022-09-06T15:37:39.913Z,20.00
2022-09-06T15:40:31.370Z,19.90
2022-09-06T15:43:20.021Z,20.00
2022-09-06T15:46:08.377Z,20.00
2022-09-06T15:49:00.787Z,20.00
2022-09-06T15:51:49.287Z,20.00
2022-09-06T15:54:56.355Z,20.00
2022-09-06T15:57:44.626Z,20.10
2022-09-06T16:00:33.750Z,20.10
2022-09-06T16:03:22.012Z,20.20
2022-09-06T16:06:28.583Z,20.20
2022-09-06T16:09:17.553Z,20.20
2022-09-06T16:12:08.554Z,20.30
2022-09-06T16:14:56.951Z,20.30
2022-09-06T16:17:47.927Z,20.40
2022-09-06T16:20:38.225Z,20.40
2022-09-06T16:23:26.438Z,20.40
2022-09-06T16:26:17.999Z,20.50
2022-09-06T16:29:12.768Z,20.50
2022-09-06T16:32:01.046Z,20.50
2022-09-06T16:34:49.229Z,20.50
2022-09-06T16:37:37.493Z,20.50
2022-09-06T16:40:25.784Z,20.50
2022-09-06T16:43:14.709Z,20.60
2022-09-06T16:46:05.171Z,20.60
2022-09-06T16:48:55.555Z,20.60
2022-09-06T16:51:44.049Z,20.60
2022-09-06T16:54:32.313Z,20.60
2022-09-06T16:57:21.561Z,20.60
2022-09-06T17:00:13.680Z,20.60
2022-09-06T17:03:03.284Z,20.50
2022-09-06T17:05:56.283Z,20.50
2022-09-06T17:08:44.814Z,20.50
2022-09-06T17:11:33.269Z,20.50
2022-09-06T17:14:22.722Z,20.50
2022-09-06T17:17:14.584Z,20.50
2022-09-06T17:20:04.943Z,20.40
2022-09-06T17:22:53.156Z,20.40
2022-09-06T17:25:43.364Z,20.40
2022-09-06T17:28:34.228Z,20.40
2022-09-06T17:31:25.913Z,20.40
2022-09-06T17:34:14.601Z,20.40
2022-09-06T17:37:06.130Z,20.30
2022-09-06T17:39:54.416Z,20.30
2022-09-06T17:42:46.718Z,20.30
2022-09-06T17:45:38.004Z,20.20
2022-09-06T17:48:29.008Z,20.20
2022-09-06T17:51:17.506Z,20.20
2022-09-06T17:54:09.212Z,20.10
2022-09-06T17:57:00.426Z,20.10
2022-09-06T17:59:48.738Z,20.10
2022-09-06T18:02:37.036Z,20.00
2022-09-06T18:05:25.374Z,20.00
2022-09-06T18:08:13.692Z,19.90
2022-09-06T18:11:09.666Z,19.90
2022-09-06T18:13:59.931Z,19.90
2022-09-06T18:16:49.313Z,19.80
2022-09-06T18:19:38.404Z,19.80
2022-09-06T18:22:28.322Z,19.70
2022-09-06T18:25:16.757Z,19.70
2022-09-06T18:28:06.339Z,19.60
2022-09-06T18:30:54.598Z,19.60
2022-09-06T18:33:43.632Z,19.60
2022-09-06T18:36:32.615Z,19.50
2022-09-06T18:39:22.011Z,19.50
2022-09-06T18:42:13.150Z,19.40
2022-09-06T18:45:02.735Z,19.40
2022-09-06T18:47:50.994Z,19.40
2022-09-06T18:50:45.180Z,19.30
2022-09-06T18:53:35.165Z,19.30
2022-09-06T18:56:25.811Z,19.30
2022-09-06T18:59:19.022Z,19.20
2022-09-06T19:02:08.623Z,19.20
2022-09-06T19:04:59.132Z,19.20
2022-09-06T19:07:49.928Z,19.20
2022-09-06T19:10:39.373Z,19.10
2022-09-06T19:13:30.610Z,19.10
2022-09-06T19:16:21.913Z,19.10
2022-09-06T19:19:11.779Z,19.00
2022-09-06T19:22:00.011Z,18.90
2022-09-06T19:24:48.278Z,18.90
2022-09-06T19:27:39.209Z,18.90
2022-09-06T19:30:27.494Z,18.80
2022-09-06T19:33:20.989Z,18.80
2022-09-06T19:36:12.369Z,18.80
2022-09-06T19:39:05.834Z,18.70
2022-09-06T19:41:54.467Z,18.70
2022-09-06T19:44:44.618Z,18.70
2022-09-06T19:47:38.801Z,18.70
2022-09-06T19:50:27.001Z,18.70
2022-09-06T19:53:54.603Z,18.60
2022-09-06T19:56:43.613Z,18.60
2022-09-06T19:59:57.069Z,18.50
2022-09-06T20:02:45.292Z,18.50
2022-09-06T20:05:50.722Z,18.40
2022-09-06T20:12:07.662Z,18.40
2022-09-06T20:15:40.367Z,18.30
2022-09-06T20:18:30.385Z,18.30
2022-09-06T20:24:58.450Z,18.20
2022-09-06T20:28:07.103Z,18.20
2022-09-06T20:31:04.430Z,18.10
2022-09-06T20:34:33.581Z,18.10
2022-09-06T20:37:37.124Z,18.10
2022-09-06T20:40:33.560Z,18.00
2022-09-06T20:43:57.406Z,18.00
2022-09-06T20:47:14.405Z,18.00
2022-09-06T20:50:46.249Z,18.00
2022-09-06T20:53:42.822Z,17.90
2022-09-06T20:56:42.076Z,17.90
2022-09-06T20:59:50.203Z,17.80
2022-09-06T21:02:48.998Z,17.80
2022-09-06T21:06:08.985Z,17.80
2022-09-06T21:09:10.551Z,17.80
2022-09-06T21:12:35.589Z,17.80
2022-09-06T21:15:41.164Z,17.70
2022-09-06T21:18:51.594Z,17.70
2022-09-06T21:21:56.684Z,17.70
2022-09-06T21:24:51.922Z,17.70
2022-09-06T21:28:03.336Z,17.70
2022-09-06T21:31:09.383Z,17.70
2022-09-06T21:34:15.654Z,17.60
2022-09-06T21:37:12.809Z,17.60
2022-09-06T21:40:18.303Z,17.60
2022-09-06T21:43:23.261Z,17.50
2022-09-06T21:46:31.766Z,17.50
2022-09-06T21:49:36.533Z,17.50
2022-09-06T21:52:43.219Z,17.50
2022-09-06T21:55:59.955Z,17.50
2022-09-06T21:59:17.718Z,17.50
2022-09-06T22:02:26.213Z,17.50
2022-09-06T22:05:41.325Z,17.50
2022-09-06T22:08:53.840Z,17.50
2022-09-06T22:12:02.914Z,17.50
2022-09-06T22:15:25.754Z,17.50
2022-09-06T22:18:38.582Z,17.50
2022-09-06T22:21:29.834Z,17.40
2022-09-06T22:24:33.302Z,17.40
2022-09-06T22:27:44.655Z,17.40
2022-09-06T22:34:20.899Z,17.30
2022-09-06T22:40:36.694Z,17.30
2022-09-06T22:43:36.694Z,17.30
2022-09-06T22:47:14.848Z,17.30
2022-09-06T22:50:24.265Z,17.30
2022-09-06T22:56:49.646Z,17.30
2022-09-06T23:00:03.357Z,17.30
2022-09-06T23:03:07.950Z,17.30
2022-09-06T23:09:34.305Z,17.20
2022-09-06T23:13:35.374Z,17.20
2022-09-06T23:16:35.263Z,17.20
2022-09-06T23:23:02.534Z,17.20
2022-09-06T23:26:03.539Z,17.10
2022-09-06T23:29:22.037Z,17.10
2022-09-06T23:32:33.476Z,17.10
2022-09-06T23:35:42.101Z,17.10
2022-09-06T23:38:52.360Z,17.10
2022-09-06T23:41:47.403Z,17.10
2022-09-06T23:44:59.359Z,17.10
2022-09-06T23:48:12.779Z,17.10
2022-09-06T23:51:24.292Z,17.10
2022-09-06T23:54:41.784Z,17.10
2022-09-06T23:57:57.353Z,17.10
